Time;durP1;ratioP1;P1;durP2;ratioP2;P2;SDS_P1;SDS_P2;PMS_P1;PMS_P2;Temp;Humidity;BMP_temperature;BMP_pressure;BME280_temperature;BME280_humidity;BME280_pressure;Samples;Min_cycle;Max_cycle;Signal;HPM_P1;HPM_P2
2022/04/08 00:01:10;;;;;;;1.47;0.70;;;;;;;;;;5069034;28;20225;-72
2022/04/08 00:03:37;;;;;;;1.57;0.80;;;;;;;;;;5067156;28;20206;-71
2022/04/08 00:06:04;;;;;;;0.93;0.67;;;;;;;;;;5065780;28;20548;-71
2022/04/08 00:08:31;;;;;;;1.37;0.70;;;;;;;;;;5067428;28;20205;-71
2022/04/08 00:10:58;;;;;;;2.43;1.00;;;;;;;;;;5068430;28;20186;-72
2022/04/08 00:13:26;;;;;;;1.97;0.90;;;;;;;;;;5040736;28;20233;-71
2022/04/08 00:15:54;;;;;;;1.93;0.73;;;;;;;;;;5063443;28;20212;-72
2022/04/08 00:18:21;;;;;;;2.23;0.80;;;;;;;;;;5070093;28;20271;-72
2022/04/08 00:20:48;;;;;;;2.07;1.00;;;;;;;;;;5067204;28;20255;-71
2022/04/08 00:23:16;;;;;;;1.87;0.93;;;;;;;;;;5068742;28;20213;-71
2022/04/08 00:25:43;;;;;;;2.47;0.87;;;;;;;;;;5064394;28;20197;-71
2022/04/08 00:28:10;;;;;;;2.93;0.97;;;;;;;;;;5076759;28;20590;-71
2022/04/08 00:30:37;;;;;;;1.03;0.60;;;;;;;;;;5045537;28;20633;-71
2022/04/08 00:33:04;;;;;;;1.67;1.10;;;;;;;;;;5067347;28;20627;-72
2022/04/08 00:35:32;;;;;;;1.47;0.80;;;;;;;;;;5046570;28;20244;-71
2022/04/08 00:37:59;;;;;;;3.67;0.87;;;;;;;;;;5031741;28;20384;-70
2022/04/08 00:40:26;;;;;;;2.10;0.80;;;;;;;;;;5066845;28;20677;-72
2022/04/08 00:42:53;;;;;;;1.43;0.80;;;;;;;;;;5045752;28;20631;-71
2022/04/08 00:45:20;;;;;;;2.40;0.90;;;;;;;;;;5067891;28;20186;-71
2022/04/08 00:47:48;;;;;;;1.77;0.70;;;;;;;;;;5046003;28;20268;-72
2022/04/08 00:50:15;;;;;;;2.10;0.70;;;;;;;;;;5048345;28;20209;-71
2022/04/08 00:52:44;;;;;;;1.27;1.00;;;;;;;;;;5057682;28;20550;-71
2022/04/08 00:55:12;;;;;;;1.73;1.10;;;;;;;;;;5061639;28;20720;-71
2022/04/08 00:57:39;;;;;;;2.70;1.10;;;;;;;;;;5064181;28;20196;-71
2022/04/08 01:00:09;;;;;;;2.23;0.70;;;;;;;;;;5066169;28;20247;-70
2022/04/08 01:02:36;;;;;;;1.90;0.77;;;;;;;;;;5029456;28;20198;-71
2022/04/08 01:05:04;;;;;;;2.13;0.90;;;;;;;;;;5028853;28;20225;-71
2022/04/08 01:07:32;;;;;;;1.30;0.70;;;;;;;;;;5047298;28;20270;-72
2022/04/08 01:09:59;;;;;;;1.57;0.77;;;;;;;;;;5019771;28;20202;-71
2022/04/08 01:12:26;;;;;;;2.50;1.33;;;;;;;;;;5034438;28;20194;-71
2022/04/08 01:15:00;;;;;;;2.47;1.00;;;;;;;;;;5027733;28;20206;-72
2022/04/08 01:17:27;;;;;;;1.70;0.90;;;;;;;;;;5039567;28;20197;-72
2022/04/08 01:19:54;;;;;;;2.13;0.90;;;;;;;;;;5010176;28;20237;-71
2022/04/08 01:22:21;;;;;;;2.17;0.70;;;;;;;;;;5028320;28;20213;-71
2022/04/08 01:24:49;;;;;;;2.27;1.00;;;;;;;;;;5045881;28;20229;-72
2022/04/08 01:27:19;;;;;;;1.50;1.07;;;;;;;;;;5031893;28;20190;-70
2022/04/08 01:29:47;;;;;;;2.23;1.10;;;;;;;;;;5022048;28;20214;-71
2022/04/08 01:32:17;;;;;;;1.87;0.90;;;;;;;;;;5045105;28;20194;-71
2022/04/08 01:34:45;;;;;;;1.13;0.60;;;;;;;;;;5028553;28;20198;-70
2022/04/08 01:37:13;;;;;;;2.10;0.90;;;;;;;;;;5048229;28;20205;-71
2022/04/08 01:39:41;;;;;;;3.27;1.43;;;;;;;;;;5046491;28;20539;-72
2022/04/08 01:42:09;;;;;;;3.00;0.80;;;;;;;;;;5046329;28;20210;-71
2022/04/08 01:44:36;;;;;;;1.43;0.73;;;;;;;;;;5051209;28;20218;-71
2022/04/08 01:47:04;;;;;;;2.00;1.00;;;;;;;;;;5038522;28;20193;-71
2022/04/08 01:49:31;;;;;;;2.93;1.10;;;;;;;;;;5032774;28;20656;-71
2022/04/08 01:51:58;;;;;;;1.37;0.60;;;;;;;;;;5032308;28;20828;-71
2022/04/08 01:54:25;;;;;;;2.07;1.20;;;;;;;;;;5028944;28;20211;-71
2022/04/08 01:56:52;;;;;;;2.10;0.70;;;;;;;;;;5050349;28;20255;-71
2022/04/08 01:59:20;;;;;;;2.30;1.17;;;;;;;;;;5048497;28;20206;-71
2022/04/08 02:01:47;;;;;;;2.73;0.93;;;;;;;;;;5061407;28;20911;-71
2022/04/08 02:04:15;;;;;;;2.27;0.90;;;;;;;;;;5059546;28;20842;-72
2022/04/08 02:06:43;;;;;;;1.90;0.93;;;;;;;;;;5045902;28;20214;-71
2022/04/08 02:09:12;;;;;;;1.60;0.70;;;;;;;;;;5070340;28;20202;-71
2022/04/08 02:11:39;;;;;;;2.30;0.90;;;;;;;;;;5048516;28;20221;-70
2022/04/08 02:14:06;;;;;;;2.80;0.90;;;;;;;;;;5070493;28;20209;-71
2022/04/08 02:16:33;;;;;;;2.40;1.20;;;;;;;;;;5048170;28;20206;-71
2022/04/08 02:19:01;;;;;;;2.60;1.00;;;;;;;;;;5074299;28;20220;-71
2022/04/08 02:21:29;;;;;;;1.67;0.93;;;;;;;;;;5069297;28;20201;-72
2022/04/08 02:23:56;;;;;;;2.50;0.90;;;;;;;;;;5059958;28;20220;-70
2022/04/08 02:26:23;;;;;;;2.37;1.00;;;;;;;;;;5069029;28;20198;-72
2022/04/08 02:28:50;;;;;;;2.30;0.90;;;;;;;;;;5060737;28;20262;-71
2022/04/08 02:31:18;;;;;;;3.43;1.00;;;;;;;;;;5066112;28;20214;-71
2022/04/08 02:33:45;;;;;;;3.80;1.20;;;;;;;;;;5067150;28;20544;-72
2022/04/08 02:36:12;;;;;;;1.53;0.83;;;;;;;;;;5052179;28;20216;-72
2022/04/08 02:38:40;;;;;;;1.73;0.70;;;;;;;;;;5070065;28;20208;-71
2022/04/08 02:41:07;;;;;;;2.07;0.97;;;;;;;;;;5069728;28;20224;-72
2022/04/08 02:43:34;;;;;;;1.73;0.90;;;;;;;;;;5069303;28;20216;-70
2022/04/08 02:46:01;;;;;;;2.30;1.00;;;;;;;;;;5069576;28;20227;-72
2022/04/08 02:48:28;;;;;;;1.90;0.90;;;;;;;;;;5075189;28;20197;-71
2022/04/08 02:50:56;;;;;;;2.53;1.00;;;;;;;;;;5051404;28;20198;-71
2022/04/08 02:53:23;;;;;;;2.10;1.07;;;;;;;;;;5068204;28;20886;-72
2022/04/08 02:55:50;;;;;;;1.77;0.90;;;;;;;;;;5043904;28;20202;-71
2022/04/08 02:58:17;;;;;;;1.70;1.10;;;;;;;;;;5052551;28;20270;-73
2022/04/08 03:00:44;;;;;;;2.03;0.80;;;;;;;;;;5073238;28;20233;-72
2022/04/08 03:03:11;;;;;;;1.63;0.80;;;;;;;;;;5068168;28;20186;-72
2022/04/08 03:05:40;;;;;;;1.83;0.70;;;;;;;;;;5059752;28;20244;-72
2022/04/08 03:08:07;;;;;;;1.67;0.90;;;;;;;;;;5051304;28;20198;-72
2022/04/08 03:10:34;;;;;;;1.63;0.80;;;;;;;;;;5056276;28;20556;-71
2022/04/08 03:13:02;;;;;;;2.37;0.97;;;;;;;;;;5065896;28;20275;-71
2022/04/08 03:15:29;;;;;;;3.17;1.00;;;;;;;;;;5067425;28;20286;-72
2022/04/08 03:17:56;;;;;;;2.93;1.10;;;;;;;;;;5065035;28;20216;-71
2022/04/08 03:20:23;;;;;;;2.57;1.30;;;;;;;;;;5067937;28;20216;-71
2022/04/08 03:22:51;;;;;;;3.03;1.27;;;;;;;;;;5068908;28;20255;-72
2022/04/08 03:25:19;;;;;;;1.93;0.90;;;;;;;;;;5078059;28;20587;-72
2022/04/08 03:27:46;;;;;;;2.43;0.93;;;;;;;;;;5060244;28;20204;-71
2022/04/08 03:30:13;;;;;;;2.13;1.10;;;;;;;;;;5064509;28;20236;-72
2022/04/08 03:32:41;;;;;;;1.97;0.90;;;;;;;;;;5068420;28;20190;-72
2022/04/08 03:35:08;;;;;;;3.10;1.47;;;;;;;;;;5068301;28;20651;-72
2022/04/08 03:37:35;;;;;;;2.00;1.13;;;;;;;;;;5048000;28;20210;-72
2022/04/08 03:40:02;;;;;;;1.77;0.80;;;;;;;;;;5065256;28;20194;-71
2022/04/08 03:42:29;;;;;;;2.73;0.80;;;;;;;;;;5057734;28;20216;-71
2022/04/08 03:44:56;;;;;;;2.37;1.30;;;;;;;;;;5053563;28;20209;-72
2022/04/08 03:47:24;;;;;;;1.07;0.80;;;;;;;;;;5067527;28;20211;-71
2022/04/08 03:49:51;;;;;;;2.77;1.00;;;;;;;;;;5066889;28;20177;-72
2022/04/08 03:52:18;;;;;;;2.13;0.97;;;;;;;;;;5067923;28;20885;-71
2022/04/08 03:54:45;;;;;;;1.77;1.00;;;;;;;;;;5071252;28;20225;-72
2022/04/08 03:57:12;;;;;;;2.43;0.83;;;;;;;;;;5066851;28;20247;-71
2022/04/08 03:59:41;;;;;;;2.40;1.17;;;;;;;;;;5048292;28;20194;-71
2022/04/08 04:02:08;;;;;;;2.87;1.20;;;;;;;;;;5067570;28;20224;-71
2022/04/08 04:04:35;;;;;;;1.47;0.87;;;;;;;;;;5068208;28;20642;-72
2022/04/08 04:07:03;;;;;;;2.63;1.50;;;;;;;;;;5045589;28;20209;-71
2022/04/08 04:09:30;;;;;;;1.43;0.80;;;;;;;;;;5062725;28;20193;-71
2022/04/08 04:11:57;;;;;;;1.93;0.80;;;;;;;;;;5067682;28;20197;-72
2022/04/08 04:14:24;;;;;;;1.93;0.90;;;;;;;;;;5050649;28;20210;-72
2022/04/08 04:16:51;;;;;;;1.60;1.17;;;;;;;;;;5068084;28;20205;-71
2022/04/08 04:19:19;;;;;;;1.73;0.87;;;;;;;;;;5066389;28;20220;-71
2022/04/08 04:21:47;;;;;;;2.30;0.90;;;;;;;;;;5070002;28;20216;-72
2022/04/08 04:24:15;;;;;;;2.13;0.80;;;;;;;;;;5070176;28;20220;-70
2022/04/08 04:26:42;;;;;;;2.27;1.00;;;;;;;;;;5067977;28;20558;-71
2022/04/08 04:29:11;;;;;;;1.53;0.90;;;;;;;;;;5065624;28;20193;-72
2022/04/08 04:31:38;;;;;;;1.63;0.87;;;;;;;;;;5060876;28;20542;-71
2022/04/08 04:34:06;;;;;;;2.30;0.83;;;;;;;;;;5067441;28;20708;-72
2022/04/08 04:36:33;;;;;;;1.93;0.87;;;;;;;;;;5074284;28;20202;-71
2022/04/08 04:39:00;;;;;;;1.57;0.80;;;;;;;;;;5065660;28;20205;-72
2022/04/08 04:41:27;;;;;;;2.20;1.20;;;;;;;;;;5061338;28;20259;-71
2022/04/08 04:43:54;;;;;;;1.70;0.77;;;;;;;;;;5038242;28;20218;-71
2022/04/08 04:46:27;;;;;;;2.80;1.30;;;;;;;;;;5064897;28;20837;-69
2022/04/08 04:48:56;;;;;;;1.40;0.90;;;;;;;;;;5054067;28;20241;-70
2022/04/08 04:51:30;;;;;;;1.90;0.90;;;;;;;;;;5072049;28;20280;-70
2022/04/08 04:54:00;;;;;;;2.30;1.00;;;;;;;;;;5063360;28;20209;-70
2022/04/08 04:56:31;;;;;;;1.83;1.03;;;;;;;;;;5055963;28;20213;-70
2022/04/08 04:59:00;;;;;;;1.97;0.83;;;;;;;;;;5051517;28;20225;-70
2022/04/08 05:01:28;;;;;;;2.23;1.07;;;;;;;;;;5077451;28;20217;-70
2022/04/08 05:04:00;;;;;;;2.90;1.13;;;;;;;;;;5048940;28;20193;-71
2022/04/08 05:06:34;;;;;;;3.47;1.10;;;;;;;;;;5049882;28;20233;-71
2022/04/08 05:09:05;;;;;;;1.53;0.80;;;;;;;;;;5071624;28;20284;-72
2022/04/08 05:11:40;;;;;;;1.93;1.17;;;;;;;;;;5047249;28;20211;-70
2022/04/08 05:14:10;;;;;;;1.63;1.13;;;;;;;;;;5066577;28;20288;-70
2022/04/08 05:16:42;;;;;;;1.90;0.87;;;;;;;;;;5067646;28;20673;-71
2022/04/08 05:19:16;;;;;;;2.17;1.13;;;;;;;;;;5062760;28;20212;-70
2022/04/08 05:21:44;;;;;;;1.70;0.97;;;;;;;;;;5064612;28;20705;-71
2022/04/08 05:24:11;;;;;;;2.20;0.87;;;;;;;;;;5068120;28;20202;-71
2022/04/08 05:26:38;;;;;;;1.70;0.93;;;;;;;;;;5069116;28;20585;-71
2022/04/08 05:29:06;;;;;;;3.33;1.13;;;;;;;;;;5069315;28;20741;-71
2022/04/08 05:31:33;;;;;;;3.63;1.07;;;;;;;;;;5065427;28;20716;-71
2022/04/08 05:34:00;;;;;;;0.73;0.60;;;;;;;;;;5072568;28;20228;-71
2022/04/08 05:36:27;;;;;;;1.57;1.10;;;;;;;;;;5071867;28;20237;-70
2022/04/08 05:38:55;;;;;;;1.37;1.23;;;;;;;;;;5073316;28;20799;-69
2022/04/08 05:41:24;;;;;;;2.30;1.30;;;;;;;;;;5081497;28;20206;-69
2022/04/08 05:43:54;;;;;;;1.63;1.00;;;;;;;;;;5066082;28;20194;-69
2022/04/08 05:46:30;;;;;;;1.73;0.80;;;;;;;;;;5070393;28;20240;-69
2022/04/08 05:49:04;;;;;;;1.87;1.10;;;;;;;;;;5055029;28;20204;-69
2022/04/08 05:51:32;;;;;;;1.87;0.97;;;;;;;;;;5068249;28;20193;-72
2022/04/08 05:54:10;;;;;;;4.70;2.13;;;;;;;;;;5040329;28;20220;-73
2022/04/08 05:56:39;;;;;;;5.57;2.37;;;;;;;;;;5066397;28;20650;-71
2022/04/08 05:59:06;;;;;;;7.70;2.10;;;;;;;;;;5065215;28;20251;-70
2022/04/08 06:01:33;;;;;;;6.70;2.57;;;;;;;;;;5064605;28;20233;-72
2022/04/08 06:04:00;;;;;;;6.97;2.67;;;;;;;;;;5066321;28;20198;-72
2022/04/08 06:06:28;;;;;;;5.03;2.30;;;;;;;;;;5062051;28;20254;-72
2022/04/08 06:09:00;;;;;;;7.17;2.77;;;;;;;;;;5055485;28;20657;-71
2022/04/08 06:11:27;;;;;;;10.23;2.60;;;;;;;;;;5062073;28;20202;-71
2022/04/08 06:13:56;;;;;;;6.23;2.70;;;;;;;;;;5066355;28;20517;-70
2022/04/08 06:16:25;;;;;;;6.20;2.37;;;;;;;;;;5068112;28;20776;-71
2022/04/08 06:18:52;;;;;;;9.53;2.93;;;;;;;;;;5047037;28;20252;-71
2022/04/08 06:21:19;;;;;;;6.47;2.47;;;;;;;;;;5048821;28;20221;-70
2022/04/08 06:23:47;;;;;;;5.07;2.33;;;;;;;;;;5062148;28;20422;-70
2022/04/08 06:26:17;;;;;;;5.63;2.47;;;;;;;;;;5067770;28;20202;-71
2022/04/08 06:28:44;;;;;;;8.03;2.57;;;;;;;;;;5050343;28;20806;-71
2022/04/08 06:31:11;;;;;;;6.63;2.50;;;;;;;;;;5065078;28;20202;-69
2022/04/08 06:33:44;;;;;;;4.60;2.33;;;;;;;;;;5065813;28;20877;-70
2022/04/08 06:36:11;;;;;;;5.27;2.40;;;;;;;;;;5068684;28;20513;-69
2022/04/08 06:38:41;;;;;;;4.57;2.27;;;;;;;;;;5061340;28;20202;-70
2022/04/08 06:41:10;;;;;;;4.57;2.30;;;;;;;;;;5048954;28;20262;-71
2022/04/08 06:43:41;;;;;;;4.53;2.10;;;;;;;;;;5062809;28;20602;-72
2022/04/08 06:46:12;;;;;;;3.53;2.33;;;;;;;;;;5004609;28;20229;-70
2022/04/08 06:48:41;;;;;;;4.67;1.80;;;;;;;;;;5063566;28;20657;-70
2022/04/08 06:51:13;;;;;;;4.40;2.10;;;;;;;;;;5065015;28;20200;-70
2022/04/08 06:53:43;;;;;;;5.07;2.10;;;;;;;;;;5057866;28;20588;-70
2022/04/08 06:56:13;;;;;;;5.43;2.00;;;;;;;;;;5047516;28;20194;-70
2022/04/08 06:58:43;;;;;;;4.67;1.93;;;;;;;;;;5059183;28;20233;-69
2022/04/08 07:01:15;;;;;;;3.60;1.80;;;;;;;;;;5057914;28;20242;-71
2022/04/08 07:03:46;;;;;;;3.77;1.80;;;;;;;;;;5043467;28;20244;-70
2022/04/08 07:06:17;;;;;;;3.30;2.00;;;;;;;;;;5044478;28;20234;-70
2022/04/08 07:08:48;;;;;;;3.43;1.67;;;;;;;;;;5030553;28;20218;-71
2022/04/08 07:11:22;;;;;;;3.57;1.80;;;;;;;;;;5045401;28;20206;-70
2022/04/08 07:13:55;;;;;;;3.97;1.80;;;;;;;;;;5041999;28;20647;-69
2022/04/08 07:16:29;;;;;;;3.37;1.63;;;;;;;;;;5031580;28;20616;-70
2022/04/08 07:19:10;;;;;;;4.13;1.33;;;;;;;;;;5042249;28;20627;-69
2022/04/08 07:21:46;;;;;;;2.90;1.70;;;;;;;;;;5033111;28;20202;-70
2022/04/08 07:24:17;;;;;;;2.50;1.50;;;;;;;;;;5027959;28;20197;-71
2022/04/08 07:26:54;;;;;;;2.47;1.57;;;;;;;;;;5054955;28;20210;-72
2022/04/08 07:29:23;;;;;;;200.23;43.50;;;;;;;;;;5053271;28;20194;-70
2022/04/08 07:31:56;;;;;;;353.53;73.27;;;;;;;;;;5032189;28;20185;-63
2022/04/08 07:34:28;;;;;;;247.47;52.13;;;;;;;;;;5055606;28;20202;-63
2022/04/08 07:36:55;;;;;;;213.73;43.37;;;;;;;;;;5056841;28;20591;-62
2022/04/08 07:39:24;;;;;;;151.43;34.37;;;;;;;;;;5057437;28;20190;-64
2022/04/08 07:41:54;;;;;;;118.23;29.77;;;;;;;;;;5056681;28;20206;-66
2022/04/08 07:44:25;;;;;;;97.67;26.63;;;;;;;;;;5059155;28;20220;-66
2022/04/08 07:47:00;;;;;;;83.73;21.43;;;;;;;;;;5041955;28;20220;-66
2022/04/08 07:49:27;;;;;;;64.63;17.57;;;;;;;;;;5054728;28;20205;-66
2022/04/08 07:51:54;;;;;;;55.20;16.67;;;;;;;;;;5059112;28;20202;-65
2022/04/08 07:54:21;;;;;;;42.87;13.20;;;;;;;;;;5036872;28;20302;-64
2022/04/08 07:56:49;;;;;;;39.17;11.90;;;;;;;;;;5058259;28;20202;-66
2022/04/08 07:59:18;;;;;;;42.10;12.20;;;;;;;;;;5044758;28;20233;-64
2022/04/08 08:01:47;;;;;;;34.80;10.63;;;;;;;;;;5069185;28;20237;-63
2022/04/08 08:04:31;;;;;;;33.73;10.63;;;;;;;;;;5080434;28;20237;-65
2022/04/08 08:07:02;;;;;;;29.33;9.47;;;;;;;;;;5076594;28;20241;-66
2022/04/08 08:09:34;;;;;;;30.73;9.40;;;;;;;;;;5061661;28;20749;-67
2022/04/08 08:12:21;;;;;;;26.33;8.93;;;;;;;;;;5080012;28;20221;-66
2022/04/08 08:14:54;;;;;;;25.43;8.17;;;;;;;;;;5078128;28;20192;-65
2022/04/08 08:17:38;;;;;;;22.97;7.90;;;;;;;;;;5057391;28;20203;-66
2022/04/08 08:20:09;;;;;;;19.90;7.10;;;;;;;;;;5078860;28;20266;-66
2022/04/08 08:22:38;;;;;;;20.07;6.27;;;;;;;;;;5046308;28;20666;-70
2022/04/08 08:25:10;;;;;;;18.97;6.30;;;;;;;;;;5041768;28;20659;-67
2022/04/08 08:27:38;;;;;;;17.47;5.73;;;;;;;;;;5071371;28;20675;-63
2022/04/08 08:30:10;;;;;;;21.23;6.77;;;;;;;;;;5051263;28;20205;-64
2022/04/08 08:32:42;;;;;;;14.93;5.73;;;;;;;;;;5074062;28;20275;-65
2022/04/08 08:35:14;;;;;;;16.87;5.60;;;;;;;;;;5072422;28;20291;-66
2022/04/08 08:37:53;;;;;;;19.47;6.00;;;;;;;;;;5071470;28;20220;-66
2022/04/08 08:40:30;;;;;;;20.97;5.30;;;;;;;;;;5067136;28;21020;-65
2022/04/08 08:43:02;;;;;;;12.93;5.00;;;;;;;;;;5034944;28;20673;-65
2022/04/08 08:45:32;;;;;;;13.23;5.20;;;;;;;;;;5047427;28;20223;-66
2022/04/08 08:48:01;;;;;;;14.90;4.10;;;;;;;;;;5066683;28;20193;-66
2022/04/08 08:50:29;;;;;;;14.03;4.00;;;;;;;;;;5066941;28;20201;-66
2022/04/08 08:52:57;;;;;;;11.20;3.90;;;;;;;;;;5070407;28;20551;-66
2022/04/08 08:55:25;;;;;;;12.93;3.97;;;;;;;;;;5065197;28;20206;-66
2022/04/08 08:57:52;;;;;;;13.87;4.07;;;;;;;;;;5070639;28;20201;-64
2022/04/08 09:00:22;;;;;;;11.13;4.67;;;;;;;;;;5055417;28;20197;-64
2022/04/08 09:02:50;;;;;;;10.13;3.77;;;;;;;;;;5054350;28;20228;-64
2022/04/08 09:05:18;;;;;;;13.17;3.63;;;;;;;;;;5077330;28;20197;-65
2022/04/08 09:08:01;;;;;;;8.43;3.47;;;;;;;;;;5071288;28;20418;-64
2022/04/08 09:10:48;;;;;;;6.10;2.83;;;;;;;;;;5074756;28;20211;-66
2022/04/08 09:13:20;;;;;;;8.33;3.47;;;;;;;;;;5058400;28;20198;-67
2022/04/08 09:16:00;;;;;;;9.07;3.37;;;;;;;;;;5070685;28;20512;-68
2022/04/08 09:18:36;;;;;;;8.13;3.17;;;;;;;;;;5074614;28;20752;-69
2022/04/08 09:21:04;;;;;;;8.57;2.70;;;;;;;;;;5076186;28;20196;-70
2022/04/08 09:23:33;;;;;;;5.10;2.30;;;;;;;;;;5074022;28;20757;-71
2022/04/08 09:26:09;;;;;;;6.47;2.93;;;;;;;;;;5055827;28;20295;-71
2022/04/08 09:28:41;;;;;;;7.87;3.13;;;;;;;;;;5056275;28;20211;-71
2022/04/08 09:31:20;;;;;;;6.17;2.57;;;;;;;;;;5069616;28;20306;-68
2022/04/08 09:33:48;;;;;;;8.37;2.43;;;;;;;;;;5073452;28;20193;-69
2022/04/08 09:36:26;;;;;;;6.40;2.20;;;;;;;;;;5074757;28;20266;-69
2022/04/08 09:38:53;;;;;;;7.23;2.33;;;;;;;;;;5075287;28;20209;-67
2022/04/08 09:41:20;;;;;;;4.90;2.13;;;;;;;;;;5075709;28;20209;-68
2022/04/08 09:43:49;;;;;;;6.23;2.03;;;;;;;;;;5055047;28;20621;-68
2022/04/08 09:46:17;;;;;;;5.33;2.33;;;;;;;;;;5079596;28;21601;-72
2022/04/08 09:48:45;;;;;;;6.43;2.00;;;;;;;;;;5081565;28;20243;-72
2022/04/08 09:51:20;;;;;;;4.53;1.97;;;;;;;;;;5077704;28;20204;-69
2022/04/08 09:54:06;;;;;;;4.27;1.73;;;;;;;;;;5068713;28;20455;-69
2022/04/08 09:56:35;;;;;;;5.43;2.87;;;;;;;;;;5075902;28;20204;-64
2022/04/08 09:59:15;;;;;;;5.20;1.80;;;;;;;;;;5078026;28;20250;-65
2022/04/08 10:02:03;;;;;;;4.03;2.10;;;;;;;;;;5081380;28;20739;-63
2022/04/08 10:04:32;;;;;;;2.23;1.33;;;;;;;;;;5079404;28;20204;-64
2022/04/08 10:07:01;;;;;;;4.43;2.10;;;;;;;;;;5076457;28;20236;-64
2022/04/08 10:09:29;;;;;;;3.20;1.40;;;;;;;;;;5077531;28;20201;-64
2022/04/08 10:11:57;;;;;;;2.63;1.53;;;;;;;;;;5076685;28;20194;-65
2022/04/08 10:14:43;;;;;;;4.90;1.70;;;;;;;;;;5074149;28;20416;-64
2022/04/08 10:17:11;;;;;;;4.07;1.30;;;;;;;;;;5071707;28;20213;-65
2022/04/08 10:19:38;;;;;;;3.80;1.33;;;;;;;;;;5067856;28;20286;-67
2022/04/08 10:22:19;;;;;;;2.23;1.27;;;;;;;;;;5077332;28;20204;-66
2022/04/08 10:24:53;;;;;;;4.10;1.30;;;;;;;;;;5061715;28;20204;-66
2022/04/08 10:27:38;;;;;;;2.90;1.50;;;;;;;;;;5078836;28;20224;-66
2022/04/08 10:30:38;;;;;;;3.70;1.80;;;;;;;;;;5073334;28;20977;-65
2022/04/08 10:33:08;;;;;;;3.83;1.30;;;;;;;;;;5075744;28;20747;-65
2022/04/08 10:35:37;;;;;;;4.43;1.40;;;;;;;;;;5074278;28;20220;-67
2022/04/08 10:38:06;;;;;;;3.80;1.40;;;;;;;;;;5077307;28;20309;-67
2022/04/08 10:40:33;;;;;;;1.77;0.90;;;;;;;;;;5068441;28;20777;-67
2022/04/08 10:43:01;;;;;;;3.20;1.30;;;;;;;;;;5051395;28;20283;-67
2022/04/08 10:45:33;;;;;;;4.30;1.80;;;;;;;;;;5073627;28;21064;-68
2022/04/08 10:48:12;;;;;;;1.83;1.27;;;;;;;;;;5079964;28;20221;-68
2022/04/08 10:50:40;;;;;;;4.60;1.40;;;;;;;;;;5078908;28;20238;-67
2022/04/08 10:53:08;;;;;;;3.27;1.17;;;;;;;;;;5081267;28;20231;-62
2022/04/08 10:55:53;;;;;;;2.30;1.10;;;;;;;;;;5073646;28;20235;-64
2022/04/08 10:58:31;;;;;;;1.80;1.20;;;;;;;;;;5078369;28;20208;-64
2022/04/08 11:00:58;;;;;;;1.67;1.10;;;;;;;;;;5077610;28;20240;-66
2022/04/08 11:03:29;;;;;;;2.80;1.13;;;;;;;;;;5054208;28;20189;-63
2022/04/08 11:05:58;;;;;;;2.70;1.20;;;;;;;;;;5075076;28;20244;-64
2022/04/08 11:08:45;;;;;;;2.30;1.13;;;;;;;;;;5079584;28;20200;-64
2022/04/08 11:11:13;;;;;;;2.03;1.10;;;;;;;;;;5043403;28;20224;-63
2022/04/08 11:13:44;;;;;;;3.83;1.10;;;;;;;;;;5074620;28;20765;-65
2022/04/08 11:16:11;;;;;;;1.40;0.93;;;;;;;;;;5062314;28;20204;-64
2022/04/08 11:18:46;;;;;;;1.77;1.13;;;;;;;;;;5074326;28;20256;-69
2022/04/08 11:21:21;;;;;;;2.37;1.13;;;;;;;;;;5081965;28;20530;-68
2022/04/08 11:23:59;;;;;;;2.90;1.87;;;;;;;;;;5077368;28;20189;-64
2022/04/08 11:26:28;;;;;;;1.67;1.20;;;;;;;;;;5077218;28;20213;-66
2022/04/08 11:28:56;;;;;;;4.33;1.27;;;;;;;;;;5050724;28;20211;-66
2022/04/08 11:31:35;;;;;;;3.30;1.23;;;;;;;;;;5060270;28;20197;-66
2022/04/08 11:34:03;;;;;;;2.63;1.23;;;;;;;;;;5081077;28;20197;-66
2022/04/08 11:36:30;;;;;;;4.40;1.33;;;;;;;;;;5080058;28;20240;-66
2022/04/08 11:38:57;;;;;;;2.13;1.30;;;;;;;;;;5083044;28;20745;-64
2022/04/08 11:41:35;;;;;;;3.20;1.60;;;;;;;;;;5074500;28;20571;-63
2022/04/08 11:44:05;;;;;;;1.87;1.40;;;;;;;;;;5062574;28;20284;-63
2022/04/08 11:46:33;;;;;;;1.90;1.47;;;;;;;;;;5079095;28;20216;-64
2022/04/08 11:49:02;;;;;;;2.07;1.60;;;;;;;;;;5081075;28;20578;-64
2022/04/08 11:51:30;;;;;;;2.53;1.50;;;;;;;;;;5077156;28;20197;-64
2022/04/08 11:54:01;;;;;;;3.37;2.07;;;;;;;;;;5054710;28;20208;-65
2022/04/08 11:56:28;;;;;;;4.47;1.67;;;;;;;;;;5079065;28;20240;-64
2022/04/08 11:58:57;;;;;;;3.63;1.80;;;;;;;;;;5082442;28;20599;-64
2022/04/08 12:01:24;;;;;;;2.20;1.70;;;;;;;;;;5077873;28;20302;-64
2022/04/08 12:03:52;;;;;;;2.77;1.80;;;;;;;;;;5079525;28;20202;-64
2022/04/08 12:06:19;;;;;;;2.20;1.70;;;;;;;;;;5075184;28;20289;-64
2022/04/08 12:08:47;;;;;;;4.23;1.93;;;;;;;;;;5076431;28;20278;-63
2022/04/08 12:11:15;;;;;;;2.77;1.73;;;;;;;;;;5076435;28;20205;-63
2022/04/08 12:13:43;;;;;;;2.47;1.40;;;;;;;;;;5074910;28;20189;-65
2022/04/08 12:16:13;;;;;;;2.13;1.20;;;;;;;;;;5074876;28;20510;-68
2022/04/08 12:18:48;;;;;;;2.83;1.47;;;;;;;;;;5071098;28;20700;-68
2022/04/08 12:21:26;;;;;;;3.33;1.40;;;;;;;;;;5074910;28;20203;-66
2022/04/08 12:23:56;;;;;;;3.77;1.63;;;;;;;;;;5054784;28;20207;-67
2022/04/08 12:26:27;;;;;;;3.13;1.40;;;;;;;;;;5073056;28;20781;-65
2022/04/08 12:29:13;;;;;;;2.37;1.27;;;;;;;;;;5073929;28;20198;-66
2022/04/08 12:31:47;;;;;;;2.10;1.30;;;;;;;;;;5064900;28;20251;-66
2022/04/08 12:34:20;;;;;;;2.97;1.40;;;;;;;;;;5074928;28;20242;-67
2022/04/08 12:36:51;;;;;;;3.27;1.33;;;;;;;;;;5063353;28;20209;-67
2022/04/08 12:39:23;;;;;;;2.80;1.30;;;;;;;;;;5058864;28;20210;-67
2022/04/08 12:41:51;;;;;;;2.77;1.43;;;;;;;;;;5073135;28;20217;-67
2022/04/08 12:44:23;;;;;;;2.80;1.30;;;;;;;;;;5076564;28;20281;-66
2022/04/08 12:46:54;;;;;;;2.77;1.23;;;;;;;;;;5079113;28;20216;-67
2022/04/08 12:49:21;;;;;;;2.60;1.40;;;;;;;;;;5075615;28;20924;-64
2022/04/08 12:51:48;;;;;;;2.80;1.53;;;;;;;;;;5072563;28;20202;-64
2022/04/08 12:54:16;;;;;;;2.67;1.57;;;;;;;;;;5048232;28;20710;-65
2022/04/08 12:56:43;;;;;;;2.10;1.70;;;;;;;;;;5072639;28;20610;-66
2022/04/08 12:59:10;;;;;;;2.73;1.60;;;;;;;;;;5075123;28;20276;-65
2022/04/08 13:01:38;;;;;;;5.37;1.80;;;;;;;;;;5063602;28;20245;-69
2022/04/08 13:04:08;;;;;;;5.53;2.00;;;;;;;;;;5047530;28;20297;-66
2022/04/08 13:06:37;;;;;;;2.43;1.60;;;;;;;;;;5046794;28;20225;-67
2022/04/08 13:09:09;;;;;;;2.10;1.63;;;;;;;;;;5062635;28;20182;-66
2022/04/08 13:11:39;;;;;;;2.23;1.70;;;;;;;;;;5062902;28;21039;-67
2022/04/08 13:14:06;;;;;;;2.40;1.93;;;;;;;;;;5065284;28;20631;-68
2022/04/08 13:16:38;;;;;;;4.50;2.00;;;;;;;;;;5033782;28;20189;-66
2022/04/08 13:19:15;;;;;;;5.20;2.03;;;;;;;;;;5041821;28;20678;-67
2022/04/08 13:21:57;;;;;;;6.47;2.10;;;;;;;;;;5059631;28;20831;-65
2022/04/08 13:24:28;;;;;;;3.10;2.20;;;;;;;;;;5069336;28;20197;-67
2022/04/08 13:26:59;;;;;;;3.30;2.07;;;;;;;;;;5067433;28;20896;-66
2022/04/08 13:29:29;;;;;;;2.20;1.77;;;;;;;;;;5057797;28;20208;-65
2022/04/08 13:31:59;;;;;;;3.27;1.87;;;;;;;;;;5067395;28;20267;-66
2022/04/08 13:34:29;;;;;;;3.10;2.10;;;;;;;;;;5045303;28;20198;-66
2022/04/08 13:37:04;;;;;;;2.73;2.00;;;;;;;;;;5053322;28;20192;-67
2022/04/08 13:39:31;;;;;;;2.50;1.93;;;;;;;;;;5045342;28;20267;-67
2022/04/08 13:41:59;;;;;;;2.53;1.87;;;;;;;;;;5070119;28;20522;-67
2022/04/08 13:44:30;;;;;;;3.33;1.90;;;;;;;;;;5068510;28;20206;-66
2022/04/08 13:46:59;;;;;;;2.43;1.80;;;;;;;;;;5068426;28;20213;-67
2022/04/08 13:49:28;;;;;;;2.93;1.40;;;;;;;;;;5061559;28;20240;-67
2022/04/08 13:51:58;;;;;;;2.93;2.00;;;;;;;;;;5050203;28;20200;-67
2022/04/08 13:54:29;;;;;;;3.10;1.90;;;;;;;;;;5063366;28;20224;-65
2022/04/08 13:56:57;;;;;;;3.50;1.97;;;;;;;;;;5064464;28;20193;-66
2022/04/08 13:59:28;;;;;;;6.30;2.00;;;;;;;;;;5065857;28;20190;-67
2022/04/08 14:02:00;;;;;;;2.63;1.83;;;;;;;;;;5066214;28;20237;-67
2022/04/08 14:04:43;;;;;;;3.40;2.00;;;;;;;;;;5046716;28;20198;-67
2022/04/08 14:07:14;;;;;;;4.17;2.20;;;;;;;;;;5051201;28;20229;-66
2022/04/08 14:09:45;;;;;;;2.33;1.87;;;;;;;;;;5065530;28;20190;-66
2022/04/08 14:12:16;;;;;;;3.33;2.17;;;;;;;;;;5062695;28;20177;-66
2022/04/08 14:14:48;;;;;;;5.30;2.27;;;;;;;;;;5060022;28;20197;-65
2022/04/08 14:17:35;;;;;;;3.50;1.50;;;;;;;;;;5070558;28;20292;-67
2022/04/08 14:20:03;;;;;;;3.37;1.90;;;;;;;;;;5078618;28;20286;-66
2022/04/08 14:22:31;;;;;;;5.70;1.90;;;;;;;;;;5048758;28;20208;-65
2022/04/08 14:24:58;;;;;;;5.37;1.97;;;;;;;;;;5076386;28;20694;-62
2022/04/08 14:27:45;;;;;;;3.57;1.77;;;;;;;;;;5074804;28;20220;-66
2022/04/08 14:30:12;;;;;;;2.47;1.60;;;;;;;;;;5068372;28;20217;-64
2022/04/08 14:32:40;;;;;;;2.90;1.77;;;;;;;;;;5066137;28;20198;-65
2022/04/08 14:35:07;;;;;;;2.63;1.40;;;;;;;;;;5070178;28;20198;-65
2022/04/08 14:37:35;;;;;;;4.00;1.50;;;;;;;;;;5070317;28;20197;-68
2022/04/08 14:40:02;;;;;;;3.43;1.80;;;;;;;;;;5065556;28;20205;-67
2022/04/08 14:42:29;;;;;;;2.73;1.80;;;;;;;;;;5068903;28;20210;-68
2022/04/08 14:44:56;;;;;;;3.00;1.70;;;;;;;;;;5076002;28;20824;-68
2022/04/08 14:47:23;;;;;;;1.70;1.30;;;;;;;;;;5068509;28;20304;-69
2022/04/08 14:49:52;;;;;;;3.30;1.43;;;;;;;;;;5068664;28;20196;-69
2022/04/08 14:52:19;;;;;;;4.40;1.47;;;;;;;;;;5071933;28;20553;-69
2022/04/08 14:54:47;;;;;;;1.70;1.40;;;;;;;;;;5069169;28;20202;-68
2022/04/08 14:57:14;;;;;;;2.97;1.93;;;;;;;;;;5058853;28;20622;-66